KLRO/LRO METAR and TAF weather

Enter ICAO airport designator
Station Type Date Time Source
KLRO METAR 2020/09/18 20:15 UTC NOAA

KLRO 182015Z AUTO 36008G14KT 330V040 10SM SCT018 OVC023 24/22 A2983 RMK AO2


Station Type Date Time Source
KLRO Decoded METAR 2020/09/18 20:15 UTC NOAA

Station name not available
Sep 18, 2020 - 04:15 PM EDT / 2020.09.18 2015 UTC
Wind: from the N (360 degrees) at 9 MPH (8 KT) gusting to 16 MPH (14 KT) (direction variable):0
Visibility: 10 mile(s):0
Sky conditions: overcast
Temperature: 75 F (24 C)
Dew Point: 71 F (22 C)
Relative Humidity: 88%
Pressure (altimeter): 29.83 in. Hg (1010 hPa)
ob: KLRO 182015Z AUTO 36008G14KT 330V040 10SM SCT018 OVC023 24/22 A2983 RMK AO2
cycle: 20

Station Type Date Time Source
KLRO TAF UTC NOAA

Error!

Example: see airport list